Albany, Minnesota
Current Conditions -  °F | °C
As of 1:53 PM on Sunday 21 Dec 2014 (Local Time) from KD39 Reporting Station
Haze Haze  
Wind Chill: 24°   Ceiling: 300
Heat Index: 33°   Visibility: 1.5mi
Dew Point: 32°   Wind: 10mph
Humidity: 99%   Direction: 150°SSE
Pressure: 29.67"   Gusts: NA
Location:  45.63°N, 94.57°W
Report Text: KD39 211953Z AUTO 15009KT 1 1/2SM BR OVC003 00/00 A2967 RMK AO2 T00030001
Loading
Personal Weather Stations






























Interactive Weather Map New forecast layout! Learn more

10-Day Weather Forecast

Advertisements
Track Severe Weather on mobile